Time;durP1;ratioP1;P1;durP2;ratioP2;P2;SDS_P1;SDS_P2;PMS_P1;PMS_P2;Temp;Humidity;BMP_temperature;BMP_pressure;BME280_temperature;BME280_humidity;BME280_pressure;Samples;Min_cycle;Max_cycle;Signal;HPM_P1;HPM_P2
2021/01/21 00:00:48;;;;;;;1.40;1.10;;;6.90;99.90;;;;;;5022894;28;20477;-83
2021/01/21 00:03:15;;;;;;;1.23;1.00;;;6.90;99.90;;;;;;5027741;28;20527;-83
2021/01/21 00:05:42;;;;;;;1.27;0.90;;;6.80;99.90;;;;;;5024896;28;20983;-83
2021/01/21 00:08:09;;;;;;;1.73;1.10;;;6.80;99.90;;;;;;5020514;28;20490;-83
2021/01/21 00:10:37;;;;;;;0.90;0.77;;;6.80;99.90;;;;;;5025735;28;20510;-85
2021/01/21 00:13:04;;;;;;;1.10;1.00;;;6.80;99.90;;;;;;5017579;28;20666;-84
2021/01/21 00:15:32;;;;;;;0.93;0.80;;;6.90;99.90;;;;;;5023745;28;20489;-84
2021/01/21 00:18:00;;;;;;;1.10;1.00;;;6.80;99.90;;;;;;5016979;28;20568;-82
2021/01/21 00:20:28;;;;;;;1.57;1.00;;;6.80;99.90;;;;;;5025535;28;20470;-84
2021/01/21 00:22:55;;;;;;;1.33;0.90;;;6.80;99.90;;;;;;5025838;28;21018;-83
2021/01/21 00:25:22;;;;;;;0.80;0.80;;;6.80;99.90;;;;;;5019802;28;20511;-84
2021/01/21 00:27:49;;;;;;;0.97;0.97;;;6.70;99.90;;;;;;5017871;28;21002;-84
2021/01/21 00:30:18;;;;;;;1.97;1.43;;;6.70;99.90;;;;;;5018432;28;20547;-84
2021/01/21 00:32:46;;;;;;;1.60;1.40;;;6.70;99.90;;;;;;5016074;28;20501;-83
2021/01/21 00:35:14;;;;;;;0.97;0.97;;;6.70;99.90;;;;;;5017396;28;20464;-82
2021/01/21 00:37:41;;;;;;;1.30;1.20;;;6.60;99.90;;;;;;5020990;28;20867;-83
2021/01/21 00:40:09;;;;;;;1.33;1.20;;;6.60;99.90;;;;;;5017808;28;20529;-83
2021/01/21 00:42:37;;;;;;;1.20;1.10;;;6.50;99.90;;;;;;5025755;28;20883;-83
2021/01/21 00:45:05;;;;;;;1.58;1.20;;;6.40;99.90;;;;;;5026830;28;20481;-82
2021/01/21 00:47:33;;;;;;;1.37;1.00;;;6.30;99.90;;;;;;5022950;28;20247;-81
2021/01/21 00:50:01;;;;;;;1.30;1.20;;;6.40;99.90;;;;;;5025562;28;20518;-82
2021/01/21 00:52:28;;;;;;;1.43;1.33;;;6.40;99.90;;;;;;5026351;28;20477;-82
2021/01/21 00:54:55;;;;;;;2.23;1.00;;;6.30;99.90;;;;;;5030287;28;20557;-83
2021/01/21 00:57:23;;;;;;;1.20;1.00;;;6.40;99.90;;;;;;5026834;28;20468;-84
2021/01/21 00:59:50;;;;;;;1.53;0.90;;;6.60;99.90;;;;;;5022187;28;20475;-85
2021/01/21 01:02:17;;;;;;;1.50;1.13;;;6.60;99.90;;;;;;5022793;28;20482;-84
2021/01/21 01:04:44;;;;;;;1.17;1.00;;;6.60;99.90;;;;;;5019158;28;20474;-83
2021/01/21 01:07:12;;;;;;;1.20;1.10;;;6.50;99.90;;;;;;5024417;28;20483;-83
2021/01/21 01:09:39;;;;;;;1.17;1.07;;;6.50;99.90;;;;;;5019100;28;20612;-82
2021/01/21 01:12:07;;;;;;;0.80;0.80;;;6.40;99.90;;;;;;5023385;28;20473;-83
2021/01/21 01:14:34;;;;;;;1.30;1.20;;;6.60;99.90;;;;;;5022480;28;20535;-82
2021/01/21 01:17:02;;;;;;;1.47;1.07;;;6.50;99.90;;;;;;5036033;28;20553;-84
2021/01/21 01:19:29;;;;;;;1.10;1.10;;;6.40;99.90;;;;;;5021903;28;20497;-83
2021/01/21 01:21:56;;;;;;;2.00;1.03;;;6.40;99.90;;;;;;5027019;28;20469;-81
2021/01/21 01:24:24;;;;;;;2.00;1.07;;;6.40;99.90;;;;;;5024319;28;20474;-82
2021/01/21 01:26:51;;;;;;;0.90;0.90;;;6.40;99.90;;;;;;5023211;28;20575;-80
2021/01/21 01:29:19;;;;;;;1.47;1.10;;;6.50;99.90;;;;;;5014401;28;20569;-80
2021/01/21 01:31:46;;;;;;;1.10;1.00;;;6.50;99.90;;;;;;5023425;28;20481;-80
2021/01/21 01:34:14;;;;;;;1.40;0.97;;;6.60;99.90;;;;;;5027101;28;20524;-80
2021/01/21 01:36:41;;;;;;;0.80;0.80;;;6.60;99.90;;;;;;5018020;28;20476;-81
2021/01/21 01:39:08;;;;;;;1.10;0.90;;;6.70;99.90;;;;;;5012410;28;21482;-81
2021/01/21 01:41:36;;;;;;;1.67;1.00;;;6.70;99.90;;;;;;5021101;28;20470;-80
2021/01/21 01:44:03;;;;;;;0.90;0.90;;;6.80;99.90;;;;;;5018235;28;20514;-81
2021/01/21 01:46:32;;;;;;;3.37;1.10;;;6.80;99.90;;;;;;5021325;28;20923;-81
2021/01/21 01:49:00;;;;;;;0.90;0.90;;;6.90;99.90;;;;;;5027423;28;20480;-81
2021/01/21 01:51:29;;;;;;;1.40;1.03;;;7.00;99.90;;;;;;5019924;28;21029;-80
2021/01/21 01:53:58;;;;;;;1.23;0.80;;;6.90;99.90;;;;;;5021414;28;20469;-80
2021/01/21 01:56:27;;;;;;;1.63;0.90;;;7.00;99.90;;;;;;5028995;28;20587;-80
2021/01/21 01:58:57;;;;;;;1.93;0.90;;;7.00;99.90;;;;;;5029721;28;20536;-81
2021/01/21 02:01:24;;;;;;;1.83;1.10;;;6.90;99.90;;;;;;5024210;28;20560;-81
2021/01/21 02:03:51;;;;;;;1.57;0.80;;;7.00;99.90;;;;;;5025539;28;20466;-79
2021/01/21 02:06:18;;;;;;;0.80;0.80;;;7.00;99.90;;;;;;5028706;28;20505;-81
2021/01/21 02:08:46;;;;;;;1.20;1.10;;;6.90;99.90;;;;;;5011665;28;20503;-82
2021/01/21 02:11:30;;;;;;;0.80;0.80;;;6.90;99.90;;;;;;5024881;28;20559;-81
2021/01/21 02:14:07;;;;;;;1.40;0.83;;;7.00;99.90;;;;;;5028284;28;20499;-80
2021/01/21 02:16:47;;;;;;;0.97;0.90;;;7.00;99.90;;;;;;5030925;28;20491;-81
2021/01/21 02:19:53;;;;;;;1.60;0.83;;;7.00;99.90;;;;;;5021112;28;21023;-82
2021/01/21 02:23:19;;;;;;;0.80;0.80;;;6.90;99.90;;;;;;5018011;28;21066;-81
2021/01/21 02:25:52;;;;;;;1.37;0.70;;;7.10;99.90;;;;;;5016463;28;20844;-80
2021/01/21 02:28:52;;;;;;;0.93;0.80;;;7.10;99.90;;;;;;5027435;28;21013;-80
2021/01/21 02:31:47;;;;;;;0.80;0.80;;;7.10;99.90;;;;;;5033591;28;20495;-83
2021/01/21 02:34:20;;;;;;;0.97;0.80;;;7.30;99.90;;;;;;5031438;28;20481;-80
2021/01/21 02:36:58;;;;;;;1.77;1.00;;;7.30;99.90;;;;;;5034176;28;20498;-82
2021/01/21 02:39:27;;;;;;;0.90;0.90;;;7.30;99.90;;;;;;5022722;28;21181;-80
2021/01/21 02:41:54;;;;;;;1.03;0.80;;;7.20;99.90;;;;;;5033248;28;20477;-83
2021/01/21 02:44:21;;;;;;;1.17;1.00;;;7.20;99.90;;;;;;5020468;28;20475;-80
2021/01/21 02:46:49;;;;;;;0.90;0.90;;;7.10;99.90;;;;;;5023828;28;20494;-79
2021/01/21 02:49:17;;;;;;;1.67;1.00;;;7.10;99.90;;;;;;5015481;28;20501;-81
2021/01/21 02:51:52;;;;;;;2.80;1.10;;;7.00;99.90;;;;;;5022093;28;20465;-82
2021/01/21 02:54:29;;;;;;;1.53;0.80;;;7.00;99.90;;;;;;5026876;28;20482;-82
2021/01/21 02:57:03;;;;;;;1.00;0.90;;;6.90;99.90;;;;;;5028604;28;20494;-80
2021/01/21 02:59:32;;;;;;;1.17;0.90;;;6.90;99.90;;;;;;5022380;28;20469;-83
2021/01/21 03:02:01;;;;;;;0.80;0.80;;;6.90;99.90;;;;;;5052128;28;20477;-79
2021/01/21 03:04:31;;;;;;;0.90;0.80;;;7.00;99.90;;;;;;5027729;28;20470;-81
2021/01/21 03:07:00;;;;;;;1.00;1.00;;;7.00;99.90;;;;;;5028090;28;20542;-82
2021/01/21 03:09:28;;;;;;;0.80;0.80;;;7.00;99.90;;;;;;5026705;28;20475;-81
2021/01/21 03:12:14;;;;;;;1.50;1.00;;;7.00;99.90;;;;;;5028763;28;20506;-82
2021/01/21 03:14:42;;;;;;;1.53;0.90;;;7.10;99.90;;;;;;5035125;28;20556;-80
2021/01/21 03:17:09;;;;;;;0.83;0.83;;;7.10;99.90;;;;;;5024647;28;20586;-81
2021/01/21 03:19:38;;;;;;;1.10;1.00;;;7.20;99.90;;;;;;5027655;28;20477;-82
2021/01/21 03:22:05;;;;;;;0.60;0.60;;;7.20;99.90;;;;;;5028894;28;20481;-79
2021/01/21 03:24:32;;;;;;;1.27;0.70;;;7.30;99.90;;;;;;5027991;28;20471;-81
2021/01/21 03:27:00;;;;;;;0.77;0.77;;;7.40;99.90;;;;;;5033573;28;20615;-81
2021/01/21 03:29:28;;;;;;;1.50;1.40;;;7.40;99.90;;;;;;5029388;28;20459;-83
2021/01/21 03:31:55;;;;;;;0.70;0.70;;;7.50;99.90;;;;;;5021026;28;20579;-82
2021/01/21 03:34:26;;;;;;;0.87;0.83;;;7.50;99.90;;;;;;5030055;28;20487;-84
2021/01/21 03:36:54;;;;;;;0.70;0.67;;;7.60;99.90;;;;;;5022387;28;20540;-77
2021/01/21 03:39:22;;;;;;;1.23;0.77;;;7.70;99.90;;;;;;5014693;28;20483;-77
2021/01/21 03:41:50;;;;;;;1.00;0.70;;;7.70;99.90;;;;;;5015965;28;20477;-76
2021/01/21 03:44:17;;;;;;;1.80;0.87;;;7.70;99.90;;;;;;5014926;28;20544;-77
2021/01/21 03:46:44;;;;;;;2.50;0.80;;;7.70;99.90;;;;;;5007390;28;20486;-77
2021/01/21 03:49:12;;;;;;;1.20;1.00;;;7.70;99.90;;;;;;5014626;28;20462;-77
2021/01/21 03:51:39;;;;;;;2.40;0.90;;;7.70;99.90;;;;;;5017657;28;20494;-76
2021/01/21 03:54:08;;;;;;;0.80;0.60;;;7.80;99.90;;;;;;5024797;28;20980;-76
2021/01/21 03:56:35;;;;;;;1.13;0.77;;;7.90;99.90;;;;;;5018654;28;20489;-77
2021/01/21 03:59:02;;;;;;;0.90;0.80;;;7.90;99.90;;;;;;5017310;28;20482;-76
2021/01/21 04:01:29;;;;;;;1.27;0.83;;;7.90;99.90;;;;;;5012367;28;20480;-77
2021/01/21 04:03:56;;;;;;;1.37;0.90;;;7.90;99.90;;;;;;5026106;28;20500;-75
2021/01/21 04:06:25;;;;;;;0.80;0.80;;;7.90;99.90;;;;;;5023931;28;20493;-78
2021/01/21 04:08:52;;;;;;;2.30;0.73;;;7.90;99.90;;;;;;5025629;28;20972;-77
2021/01/21 04:11:21;;;;;;;0.70;0.60;;;7.90;99.90;;;;;;5021921;28;20535;-78
2021/01/21 04:13:48;;;;;;;1.47;0.80;;;7.80;99.90;;;;;;5025631;28;20465;-77
2021/01/21 04:16:15;;;;;;;0.90;0.80;;;7.80;99.90;;;;;;5011672;28;21067;-77
2021/01/21 04:18:42;;;;;;;0.80;0.80;;;7.80;99.90;;;;;;5021894;28;20810;-79
2021/01/21 04:21:09;;;;;;;0.80;0.80;;;7.90;99.90;;;;;;5018066;28;20466;-77
2021/01/21 04:23:37;;;;;;;1.00;0.80;;;7.80;99.90;;;;;;5025944;28;20471;-77
2021/01/21 04:26:05;;;;;;;2.13;0.70;;;7.90;99.90;;;;;;5019816;28;20492;-77
2021/01/21 04:28:36;;;;;;;1.00;0.90;;;7.90;99.90;;;;;;5019857;28;20804;-76
2021/01/21 04:31:03;;;;;;;0.70;0.70;;;7.80;99.90;;;;;;5017389;28;20510;-77
2021/01/21 04:33:31;;;;;;;0.70;0.70;;;7.80;99.90;;;;;;5022727;28;21009;-77
2021/01/21 04:35:58;;;;;;;0.70;0.70;;;7.80;99.90;;;;;;5013947;28;20499;-76
2021/01/21 04:38:25;;;;;;;2.30;0.90;;;7.80;99.90;;;;;;5018486;28;20479;-78
2021/01/21 04:40:52;;;;;;;0.70;0.70;;;7.80;99.90;;;;;;5012824;28;20461;-76
2021/01/21 04:43:20;;;;;;;1.37;0.90;;;7.80;99.90;;;;;;5020502;28;20473;-76
2021/01/21 04:45:48;;;;;;;1.03;0.87;;;7.80;99.90;;;;;;5021226;28;21023;-76
2021/01/21 04:48:16;;;;;;;1.00;0.90;;;7.70;99.90;;;;;;5023491;28;20517;-76
2021/01/21 04:50:44;;;;;;;0.90;0.90;;;7.80;99.90;;;;;;5015755;28;20493;-76
2021/01/21 04:53:14;;;;;;;1.13;0.90;;;7.70;99.90;;;;;;5023774;28;21014;-76
2021/01/21 04:55:46;;;;;;;0.70;0.67;;;7.70;99.90;;;;;;5021304;28;20490;-77
2021/01/21 04:58:17;;;;;;;0.80;0.80;;;7.70;99.90;;;;;;5022936;28;20548;-75
2021/01/21 05:00:45;;;;;;;0.70;0.70;;;7.70;99.90;;;;;;5014795;28;20647;-77
2021/01/21 05:03:14;;;;;;;0.70;0.70;;;7.80;99.90;;;;;;5021962;28;20479;-76
2021/01/21 05:05:41;;;;;;;2.50;0.73;;;7.80;99.90;;;;;;5019027;28;21110;-76
2021/01/21 05:08:08;;;;;;;0.63;0.63;;;7.70;99.90;;;;;;5014802;28;20544;-76
2021/01/21 05:10:36;;;;;;;1.10;0.90;;;7.70;99.90;;;;;;5017485;28;20511;-77
2021/01/21 05:13:03;;;;;;;0.80;0.80;;;7.70;99.90;;;;;;5015233;28;20240;-76
2021/01/21 05:15:31;;;;;;;0.80;0.70;;;7.70;99.90;;;;;;5017126;28;21053;-76
2021/01/21 05:17:59;;;;;;;0.90;0.90;;;7.80;99.90;;;;;;5017821;28;20475;-76
2021/01/21 05:20:28;;;;;;;0.67;0.67;;;7.80;99.90;;;;;;5023050;28;20567;-75
2021/01/21 05:22:59;;;;;;;1.50;0.80;;;7.80;99.90;;;;;;5023962;28;20464;-74
2021/01/21 05:25:27;;;;;;;0.70;0.70;;;7.80;99.90;;;;;;5020007;28;20493;-74
2021/01/21 05:27:56;;;;;;;0.93;0.73;;;7.80;99.90;;;;;;5026487;28;21399;-74
2021/01/21 05:30:27;;;;;;;0.80;0.80;;;7.90;99.90;;;;;;5017046;28;20580;-72
2021/01/21 05:32:55;;;;;;;0.63;0.60;;;8.00;99.90;;;;;;5024341;28;20500;-73
2021/01/21 05:35:23;;;;;;;0.77;0.77;;;8.00;99.90;;;;;;5018341;28;20566;-75
2021/01/21 05:37:55;;;;;;;2.87;0.70;;;8.00;99.90;;;;;;5020845;28;20477;-77
2021/01/21 05:40:23;;;;;;;1.17;0.77;;;8.10;99.90;;;;;;5017717;28;20467;-74
2021/01/21 05:42:52;;;;;;;0.90;0.90;;;8.00;99.90;;;;;;5014701;28;20542;-75
2021/01/21 05:45:20;;;;;;;0.70;0.70;;;8.10;99.90;;;;;;5017163;28;20736;-75
2021/01/21 05:47:55;;;;;;;5.33;0.73;;;8.10;99.90;;;;;;5012952;28;20493;-76
2021/01/21 05:50:23;;;;;;;0.93;0.83;;;8.20;99.90;;;;;;5019901;28;20565;-75
2021/01/21 05:52:52;;;;;;;0.80;0.80;;;8.20;99.90;;;;;;5010116;28;20470;-74
2021/01/21 05:55:22;;;;;;;2.20;0.70;;;8.20;99.90;;;;;;5013343;28;20553;-75
2021/01/21 05:57:50;;;;;;;0.70;0.70;;;8.30;99.90;;;;;;5012281;28;20475;-75
2021/01/21 06:00:18;;;;;;;0.70;0.70;;;8.20;99.90;;;;;;5019799;28;20728;-75
2021/01/21 06:02:45;;;;;;;0.70;0.70;;;8.20;99.90;;;;;;5023788;28;20535;-76
2021/01/21 06:05:18;;;;;;;1.07;0.80;;;8.20;99.90;;;;;;5024676;28;20620;-76
2021/01/21 06:07:47;;;;;;;1.30;0.70;;;8.30;99.90;;;;;;5023820;28;20470;-75
2021/01/21 06:10:16;;;;;;;1.17;0.87;;;8.30;99.90;;;;;;5020074;28;20503;-75
2021/01/21 06:12:45;;;;;;;1.00;1.00;;;8.30;99.90;;;;;;5024365;28;20590;-75
2021/01/21 06:15:14;;;;;;;1.10;0.93;;;8.30;99.90;;;;;;5023918;28;20494;-74
2021/01/21 06:17:42;;;;;;;2.30;0.83;;;8.30;99.90;;;;;;5020951;28;20472;-75
2021/01/21 06:20:11;;;;;;;0.60;0.60;;;8.30;99.90;;;;;;5022780;28;20470;-73
2021/01/21 06:22:40;;;;;;;0.60;0.60;;;8.30;99.90;;;;;;5019372;28;20512;-76
2021/01/21 06:25:13;;;;;;;2.00;0.90;;;8.30;99.90;;;;;;5023975;28;20498;-75
2021/01/21 06:27:42;;;;;;;1.37;0.70;;;8.30;99.90;;;;;;5021217;28;20481;-75
2021/01/21 06:30:14;;;;;;;0.60;0.60;;;8.30;99.90;;;;;;5021255;28;20984;-75
2021/01/21 06:32:53;;;;;;;0.70;0.70;;;8.30;99.90;;;;;;5018968;28;21022;-76
2021/01/21 06:35:21;;;;;;;1.20;0.70;;;8.40;99.90;;;;;;5015918;28;20244;-74
2021/01/21 06:37:52;;;;;;;0.97;0.77;;;8.40;99.90;;;;;;5023170;28;20545;-75
2021/01/21 06:40:21;;;;;;;1.23;0.70;;;8.40;99.90;;;;;;5019610;28;20533;-76
2021/01/21 06:42:58;;;;;;;0.60;0.60;;;8.40;99.90;;;;;;5020931;28;20472;-76
2021/01/21 06:45:27;;;;;;;0.70;0.70;;;8.40;99.90;;;;;;5018874;28;20497;-75
2021/01/21 06:47:56;;;;;;;1.00;0.90;;;8.40;99.90;;;;;;5022865;28;20508;-74
2021/01/21 06:50:28;;;;;;;0.70;0.70;;;8.30;99.90;;;;;;5023054;28;20500;-75
2021/01/21 06:52:58;;;;;;;0.70;0.70;;;8.40;99.90;;;;;;5022952;28;20980;-75
2021/01/21 06:55:28;;;;;;;0.80;0.80;;;8.30;99.90;;;;;;5018824;28;20496;-76
2021/01/21 06:57:56;;;;;;;0.80;0.80;;;8.30;99.90;;;;;;5021081;28;20478;-75
2021/01/21 07:00:42;;;;;;;0.90;0.90;;;8.30;99.90;;;;;;5022287;28;20824;-75
2021/01/21 07:03:28;;;;;;;1.00;0.90;;;8.30;99.90;;;;;;5016395;28;20512;-75
2021/01/21 07:05:59;;;;;;;0.70;0.70;;;8.20;99.90;;;;;;5023820;28;20312;-74
2021/01/21 07:08:28;;;;;;;0.70;0.70;;;8.20;99.90;;;;;;5015088;28;20504;-72
2021/01/21 07:10:59;;;;;;;1.00;0.70;;;8.30;99.90;;;;;;5022998;28;21269;-75
2021/01/21 07:13:30;;;;;;;1.10;0.60;;;8.20;99.90;;;;;;5019532;28;20975;-74
2021/01/21 07:16:00;;;;;;;5.03;1.20;;;8.20;99.90;;;;;;5018100;28;20495;-73
2021/01/21 07:18:32;;;;;;;1.35;0.80;;;8.30;99.90;;;;;;5015780;28;20486;-73
2021/01/21 07:21:16;;;;;;;0.70;0.70;;;8.30;99.90;;;;;;5024936;28;20226;-73
2021/01/21 07:23:47;;;;;;;0.60;0.60;;;8.30;99.90;;;;;;5016569;28;20468;-76
2021/01/21 07:26:33;;;;;;;1.57;1.20;;;8.30;99.90;;;;;;5025704;28;20780;-73
2021/01/21 07:29:10;;;;;;;0.70;0.70;;;8.30;99.90;;;;;;5014614;28;20478;-73
2021/01/21 07:32:06;;;;;;;0.60;0.60;;;8.30;99.90;;;;;;5021869;28;20958;-74
2021/01/21 07:34:44;;;;;;;1.50;0.53;;;8.30;99.90;;;;;;5019875;28;21041;-76
2021/01/21 07:37:16;;;;;;;1.97;0.70;;;8.30;99.90;;;;;;5021672;28;20552;-75
2021/01/21 07:40:05;;;;;;;2.07;0.70;;;8.30;99.90;;;;;;5025637;28;20468;-75
2021/01/21 07:42:50;;;;;;;0.80;0.80;;;8.30;99.90;;;;;;5027375;28;20517;-75
2021/01/21 07:45:26;;;;;;;0.50;0.50;;;8.30;99.90;;;;;;5024441;28;21020;-74
2021/01/21 07:47:55;;;;;;;1.33;0.70;;;8.30;99.90;;;;;;5023671;28;20465;-74
2021/01/21 07:50:32;;;;;;;0.83;0.77;;;8.20;1.00;;;;;;5021866;28;21453;-74
2021/01/21 07:53:02;;;;;;;0.70;0.70;;;8.20;1.00;;;;;;5016242;28;20577;-74
2021/01/21 07:55:31;;;;;;;0.60;0.60;;;8.20;1.00;;;;;;5017735;28;20503;-74
2021/01/21 07:58:21;;;;;;;0.60;0.60;;;8.20;1.00;;;;;;5020965;28;20470;-73
2021/01/21 08:00:51;;;;;;;0.80;0.70;;;8.30;1.00;;;;;;5016468;28;20560;-76
2021/01/21 08:03:30;;;;;;;1.13;0.60;;;8.20;1.00;;;;;;5018049;28;20885;-76
2021/01/21 08:06:05;;;;;;;1.67;0.77;;;8.20;1.00;;;;;;5020780;28;20513;-73
2021/01/21 08:08:32;;;;;;;1.80;0.60;;;8.40;99.90;;;;;;5017130;28;20474;-74
2021/01/21 08:11:05;;;;;;;0.70;0.67;;;8.50;99.90;;;;;;5017728;28;20582;-74
2021/01/21 08:13:33;;;;;;;1.17;0.70;;;8.60;99.90;;;;;;5017054;28;20473;-74
2021/01/21 08:16:01;;;;;;;3.10;1.63;;;8.70;99.90;;;;;;5016557;28;20495;-72
2021/01/21 08:18:29;;;;;;;0.63;0.60;;;8.80;99.90;;;;;;5019550;28;20478;-73
2021/01/21 08:20:56;;;;;;;0.60;0.60;;;9.00;99.90;;;;;;5014175;28;20467;-73
2021/01/21 08:23:23;;;;;;;0.83;0.60;;;9.00;99.90;;;;;;5020291;28;21357;-73
2021/01/21 08:25:53;;;;;;;0.67;0.60;;;9.10;99.90;;;;;;5017415;28;20545;-73
2021/01/21 08:28:21;;;;;;;0.70;0.70;;;9.10;99.90;;;;;;5018551;28;20467;-73
2021/01/21 08:30:50;;;;;;;4.73;0.67;;;9.20;99.90;;;;;;5018842;28;20546;-74
2021/01/21 08:33:21;;;;;;;0.70;0.70;;;9.20;99.90;;;;;;5016873;28;20992;-73
2021/01/21 08:35:51;;;;;;;0.60;0.60;;;9.30;99.90;;;;;;5018539;28;21073;-75
2021/01/21 08:38:22;;;;;;;1.40;0.70;;;9.30;99.90;;;;;;5017965;28;20474;-73
2021/01/21 08:40:50;;;;;;;1.40;0.70;;;9.40;99.90;;;;;;5017256;28;20464;-75
2021/01/21 08:43:19;;;;;;;0.57;0.57;;;9.40;99.90;;;;;;5019638;28;20958;-74
2021/01/21 08:45:46;;;;;;;0.60;0.60;;;9.50;99.90;;;;;;5015391;28;20494;-74
2021/01/21 08:48:24;;;;;;;0.53;0.50;;;9.40;99.90;;;;;;5015240;28;20483;-74
2021/01/21 08:50:52;;;;;;;0.70;0.70;;;9.40;99.90;;;;;;5017133;28;20486;-74
2021/01/21 08:53:24;;;;;;;1.00;0.67;;;9.30;99.90;;;;;;5024529;28;20467;-74
2021/01/21 08:55:52;;;;;;;0.60;0.60;;;9.20;99.90;;;;;;5019434;28;20484;-75
2021/01/21 08:58:26;;;;;;;0.60;0.60;;;9.10;99.90;;;;;;5016363;28;20475;-74
2021/01/21 09:01:02;;;;;;;0.73;0.63;;;9.00;99.90;;;;;;5012798;28;20459;-74
2021/01/21 09:03:36;;;;;;;0.80;0.80;;;9.10;99.90;;;;;;5017963;28;20482;-73
2021/01/21 09:06:07;;;;;;;0.90;0.70;;;9.20;99.90;;;;;;5016889;28;20666;-73
2021/01/21 09:08:46;;;;;;;0.60;0.60;;;9.30;99.90;;;;;;5018174;28;20469;-74
2021/01/21 09:11:33;;;;;;;0.60;0.60;;;9.40;99.90;;;;;;5020133;28;20503;-75
2021/01/21 09:14:01;;;;;;;0.70;0.70;;;9.50;99.90;;;;;;5029108;28;20464;-73
2021/01/21 09:16:43;;;;;;;0.60;0.57;;;9.50;99.90;;;;;;5016415;28;20505;-73
2021/01/21 09:19:14;;;;;;;0.80;0.70;;;9.60;99.90;;;;;;5020639;28;20475;-73
2021/01/21 09:21:59;;;;;;;0.93;0.83;;;9.70;99.90;;;;;;5016891;28;20529;-73
2021/01/21 09:24:27;;;;;;;0.60;0.60;;;9.70;99.90;;;;;;5020005;28;21044;-73
2021/01/21 09:27:08;;;;;;;0.60;0.60;;;9.80;99.90;;;;;;5017531;28;20542;-72
2021/01/21 09:29:50;;;;;;;0.60;0.60;;;9.90;99.90;;;;;;5014519;28;20471;-73
2021/01/21 09:32:19;;;;;;;0.70;0.70;;;9.80;99.90;;;;;;5022425;28;20491;-73
2021/01/21 09:35:08;;;;;;;0.87;0.77;;;9.90;99.90;;;;;;5026163;28;20311;-75
2021/01/21 09:37:37;;;;;;;0.57;0.57;;;9.90;99.90;;;;;;5020535;28;20488;-76
2021/01/21 09:40:06;;;;;;;0.77;0.70;;;10.00;99.90;;;;;;5020421;28;20269;-74
2021/01/21 09:42:33;;;;;;;0.70;0.70;;;10.00;99.90;;;;;;5029466;28;20471;-75
2021/01/21 09:45:01;;;;;;;0.80;0.70;;;10.10;99.90;;;;;;5030343;28;20461;-75
2021/01/21 09:47:28;;;;;;;0.70;0.70;;;10.10;99.90;;;;;;5018136;28;20961;-74
2021/01/21 09:49:56;;;;;;;0.80;0.80;;;10.10;99.90;;;;;;5017442;28;20902;-75
2021/01/21 09:52:25;;;;;;;0.60;0.60;;;10.30;99.90;;;;;;5020586;28;20493;-74
2021/01/21 09:54:53;;;;;;;0.70;0.60;;;10.40;99.90;;;;;;5032095;28;20473;-69
2021/01/21 09:57:20;;;;;;;1.43;0.70;;;10.50;99.90;;;;;;5027101;28;21053;-76
2021/01/21 09:59:47;;;;;;;0.50;0.50;;;10.70;99.90;;;;;;5028602;28;20461;-74
2021/01/21 10:02:14;;;;;;;0.80;0.70;;;10.70;99.90;;;;;;5029015;28;20477;-74
2021/01/21 10:04:42;;;;;;;0.97;0.70;;;10.90;99.90;;;;;;5022855;28;20474;-75
2021/01/21 10:07:09;;;;;;;0.60;0.60;;;11.00;99.90;;;;;;5025085;28;20454;-73
2021/01/21 10:09:38;;;;;;;0.70;0.70;;;11.20;99.90;;;;;;5019761;28;20475;-73
2021/01/21 10:12:07;;;;;;;0.60;0.60;;;11.40;99.90;;;;;;5018871;28;20628;-74
2021/01/21 10:14:34;;;;;;;0.80;0.70;;;11.70;99.90;;;;;;5020964;28;21156;-74
2021/01/21 10:17:02;;;;;;;0.50;0.50;;;11.90;99.90;;;;;;5026166;28;20505;-75
2021/01/21 10:19:31;;;;;;;1.87;0.80;;;12.10;99.90;;;;;;5025667;28;20491;-73
2021/01/21 10:21:58;;;;;;;0.73;0.73;;;12.20;99.90;;;;;;5020832;28;20469;-73
2021/01/21 10:24:27;;;;;;;0.80;0.80;;;12.20;99.90;;;;;;5019236;28;20480;-73
2021/01/21 10:26:55;;;;;;;0.70;0.60;;;12.30;99.90;;;;;;5021174;28;20232;-72
2021/01/21 10:29:22;;;;;;;0.70;0.60;;;12.10;99.90;;;;;;5021251;28;20831;-73
2021/01/21 10:31:50;;;;;;;0.80;0.60;;;11.90;99.90;;;;;;5021412;28;20460;-73
2021/01/21 10:34:17;;;;;;;0.60;0.60;;;11.60;99.90;;;;;;5020941;28;20894;-73
2021/01/21 10:36:45;;;;;;;0.57;0.57;;;11.80;99.90;;;;;;5025734;28;20486;-73
2021/01/21 10:39:12;;;;;;;0.90;0.70;;;12.40;99.90;;;;;;5022950;28;20462;-72
2021/01/21 10:41:39;;;;;;;0.70;0.70;;;12.60;99.90;;;;;;5020424;28;20469;-73
2021/01/21 10:44:07;;;;;;;0.70;0.60;;;12.10;99.90;;;;;;5029776;28;21042;-72
2021/01/21 10:46:34;;;;;;;0.90;0.70;;;12.00;99.90;;;;;;5026742;28;20480;-72
2021/01/21 10:49:02;;;;;;;0.63;0.60;;;11.70;99.90;;;;;;5020662;28;20831;-74
2021/01/21 10:51:29;;;;;;;0.70;0.70;;;11.50;99.90;;;;;;5020635;28;20498;-73
2021/01/21 10:53:57;;;;;;;0.70;0.60;;;11.70;99.90;;;;;;5033337;28;20468;-73
2021/01/21 10:56:24;;;;;;;0.87;0.63;;;12.50;99.90;;;;;;5042649;28;20615;-74
2021/01/21 10:58:51;;;;;;;0.90;0.70;;;12.10;99.90;;;;;;5033899;28;20619;-73
2021/01/21 11:01:19;;;;;;;0.73;0.70;;;11.50;99.90;;;;;;5023628;28;20521;-73
2021/01/21 11:03:46;;;;;;;1.10;0.63;;;11.90;99.90;;;;;;5026432;28;21108;-72
2021/01/21 11:06:15;;;;;;;1.00;0.73;;;12.50;99.90;;;;;;5012235;28;20506;-73
2021/01/21 11:08:42;;;;;;;0.73;0.70;;;12.20;99.90;;;;;;5029411;28;20874;-73
2021/01/21 11:11:09;;;;;;;0.60;0.60;;;11.50;99.90;;;;;;5022129;28;20488;-75
2021/01/21 11:13:37;;;;;;;0.60;0.60;;;11.20;99.90;;;;;;5035236;28;20492;-72
2021/01/21 11:16:06;;;;;;;0.70;0.70;;;10.90;99.90;;;;;;5022770;28;20496;-73
2021/01/21 11:18:35;;;;;;;0.60;0.60;;;10.80;1.00;;;;;;5033965;28;20469;-74
2021/01/21 11:21:03;;;;;;;1.07;0.60;;;10.90;1.00;;;;;;5022965;28;20470;-73
2021/01/21 11:23:30;;;;;;;0.70;0.70;;;10.90;1.00;;;;;;5028196;28;20854;-75
2021/01/21 11:25:57;;;;;;;0.70;0.70;;;10.90;99.90;;;;;;5036080;28;20494;-73
2021/01/21 11:28:24;;;;;;;0.70;0.70;;;11.10;99.90;;;;;;5025686;28;20489;-72
2021/01/21 11:30:51;;;;;;;0.95;0.80;;;11.30;99.90;;;;;;5026341;28;21068;-75
2021/01/21 11:33:19;;;;;;;0.80;0.80;;;11.20;99.90;;;;;;5020844;28;20570;-73
2021/01/21 11:35:47;;;;;;;0.60;0.60;;;11.20;99.90;;;;;;5026115;28;20503;-74
2021/01/21 11:38:15;;;;;;;0.73;0.73;;;11.10;99.90;;;;;;5022726;28;21381;-74
2021/01/21 11:40:44;;;;;;;0.87;0.80;;;11.10;99.90;;;;;;5020811;28;20469;-74
2021/01/21 11:43:11;;;;;;;1.03;0.90;;;11.10;99.90;;;;;;5020908;28;20468;-74
2021/01/21 11:45:39;;;;;;;0.80;0.70;;;11.20;99.90;;;;;;5025061;28;20569;-75
2021/01/21 11:48:07;;;;;;;0.70;0.70;;;11.00;99.90;;;;;;5032147;28;20457;-73
2021/01/21 11:50:34;;;;;;;1.73;0.80;;;10.90;99.90;;;;;;5024455;28;20986;-74
2021/01/21 11:53:03;;;;;;;0.80;0.80;;;10.90;99.90;;;;;;5022595;28;20487;-73
2021/01/21 11:55:30;;;;;;;0.77;0.77;;;10.80;99.90;;;;;;5027355;28;20551;-75
2021/01/21 11:57:57;;;;;;;1.03;0.80;;;10.90;99.90;;;;;;5035112;28;20463;-74
2021/01/21 12:00:27;;;;;;;1.17;0.80;;;11.00;99.90;;;;;;5022618;28;20485;-75
2021/01/21 12:02:55;;;;;;;1.10;0.80;;;11.00;99.90;;;;;;5024776;28;20461;-74
2021/01/21 12:05:23;;;;;;;0.80;0.80;;;10.90;99.90;;;;;;5017609;28;20497;-75
2021/01/21 12:07:51;;;;;;;1.90;0.90;;;11.00;99.90;;;;;;5019614;28;20454;-73
2021/01/21 12:10:19;;;;;;;1.00;0.70;;;11.00;99.90;;;;;;5017772;28;20471;-75
2021/01/21 12:12:48;;;;;;;1.10;0.80;;;11.00;99.90;;;;;;5020781;28;20494;-74
2021/01/21 12:15:16;;;;;;;0.70;0.70;;;11.10;99.90;;;;;;5024779;28;20938;-74
2021/01/21 12:17:43;;;;;;;0.60;0.60;;;11.20;99.90;;;;;;5028142;28;20468;-75
2021/01/21 12:20:11;;;;;;;0.87;0.70;;;11.10;99.90;;;;;;5014739;28;20463;-75
2021/01/21 12:22:40;;;;;;;1.30;0.60;;;11.10;99.90;;;;;;5017486;28;20463;-72
2021/01/21 12:25:09;;;;;;;1.13;0.70;;;11.10;99.90;;;;;;5014758;28;20529;-74
2021/01/21 12:27:37;;;;;;;1.20;0.70;;;11.10;99.90;;;;;;5026837;28;20473;-78
2021/01/21 12:30:05;;;;;;;1.50;0.70;;;11.10;99.90;;;;;;5021471;28;20964;-75
2021/01/21 12:32:33;;;;;;;1.70;0.60;;;11.20;99.90;;;;;;5012915;28;20529;-74
2021/01/21 12:35:00;;;;;;;0.80;0.80;;;11.20;99.90;;;;;;5025363;28;20499;-73
2021/01/21 12:37:27;;;;;;;1.20;0.80;;;11.20;99.90;;;;;;5023545;28;20525;-73
2021/01/21 12:39:54;;;;;;;0.60;0.60;;;11.10;99.90;;;;;;5015942;28;20485;-74
2021/01/21 12:42:21;;;;;;;1.30;0.60;;;11.10;99.90;;;;;;5028072;28;20482;-73
2021/01/21 12:44:49;;;;;;;0.97;0.67;;;11.00;99.90;;;;;;5017121;28;20498;-73
2021/01/21 12:47:16;;;;;;;0.60;0.60;;;11.00;99.90;;;;;;5027108;28;20482;-72
2021/01/21 12:49:44;;;;;;;0.70;0.60;;;11.00;1.00;;;;;;5025633;28;20538;-73
2021/01/21 12:52:12;;;;;;;1.75;0.90;;;11.10;99.90;;;;;;5023178;28;20548;-72
2021/01/21 12:54:39;;;;;;;0.67;0.67;;;11.20;99.90;;;;;;5026362;28;20209;-73
2021/01/21 12:57:06;;;;;;;1.10;0.90;;;11.00;99.90;;;;;;5031153;28;20878;-71
2021/01/21 12:59:34;;;;;;;1.03;0.70;;;11.10;99.90;;;;;;5020657;28;20484;-72
2021/01/21 13:02:02;;;;;;;0.70;0.70;;;11.20;99.90;;;;;;5015316;28;20972;-72
2021/01/21 13:04:30;;;;;;;1.10;0.70;;;11.10;99.90;;;;;;5027210;28;20462;-71
2021/01/21 13:06:57;;;;;;;1.60;0.80;;;11.00;99.90;;;;;;5021025;28;20929;-72
2021/01/21 13:09:24;;;;;;;1.07;0.73;;;11.00;99.90;;;;;;5020847;28;20467;-72